sensor_id;sensor_type;location;lat;lon;timestamp;temperature;humidity
22698;DHT22;11516;51.612;7.510;2023-06-05T00:04:10;14.90;99.90
22698;DHT22;11516;51.612;7.510;2023-06-05T00:06:36;14.80;99.90
22698;DHT22;11516;51.612;7.510;2023-06-05T00:09:06;14.90;99.90
22698;DHT22;11516;51.612;7.510;2023-06-05T00:11:32;14.80;99.90
22698;DHT22;11516;51.612;7.510;2023-06-05T00:13:58;14.60;99.90
22698;DHT22;11516;51.612;7.510;2023-06-05T00:16:24;15.10;99.90
22698;DHT22;11516;51.612;7.510;2023-06-05T00:18:49;14.70;99.90
22698;DHT22;11516;51.612;7.510;2023-06-05T00:21:16;14.80;99.90
22698;DHT22;11516;51.612;7.510;2023-06-05T00:26:17;14.60;99.90
22698;DHT22;11516;51.612;7.510;2023-06-05T00:28:43;14.50;99.90
22698;DHT22;11516;51.612;7.510;2023-06-05T00:31:10;14.40;99.90
22698;DHT22;11516;51.612;7.510;2023-06-05T00:33:38;14.40;99.90
22698;DHT22;11516;51.612;7.510;2023-06-05T00:36:04;14.30;99.90
22698;DHT22;11516;51.612;7.510;2023-06-05T00:38:30;14.40;99.90
22698;DHT22;11516;51.612;7.510;2023-06-05T00:40:56;14.30;99.90
22698;DHT22;11516;51.612;7.510;2023-06-05T00:43:21;14.00;99.90
22698;DHT22;11516;51.612;7.510;2023-06-05T00:45:47;14.40;99.90
22698;DHT22;11516;51.612;7.510;2023-06-05T00:48:13;14.30;99.90
22698;DHT22;11516;51.612;7.510;2023-06-05T00:50:40;14.20;99.90
22698;DHT22;11516;51.612;7.510;2023-06-05T00:53:06;14.30;99.90
22698;DHT22;11516;51.612;7.510;2023-06-05T00:55:32;14.10;99.90
22698;DHT22;11516;51.612;7.510;2023-06-05T00:58:00;14.30;99.90
22698;DHT22;11516;51.612;7.510;2023-06-05T01:00:26;14.00;99.90
22698;DHT22;11516;51.612;7.510;2023-06-05T01:02:52;13.90;99.90
22698;DHT22;11516;51.612;7.510;2023-06-05T01:05:19;13.80;99.90
22698;DHT22;11516;51.612;7.510;2023-06-05T01:07:45;14.00;99.90
22698;DHT22;11516;51.612;7.510;2023-06-05T01:10:13;13.80;99.90
22698;DHT22;11516;51.612;7.510;2023-06-05T01:12:49;13.60;99.90
22698;DHT22;11516;51.612;7.510;2023-06-05T01:15:20;13.60;99.90
22698;DHT22;11516;51.612;7.510;2023-06-05T01:17:57;13.90;99.90
22698;DHT22;11516;51.612;7.510;2023-06-05T01:20:32;13.60;99.90
22698;DHT22;11516;51.612;7.510;2023-06-05T01:22:57;13.50;99.90
22698;DHT22;11516;51.612;7.510;2023-06-05T01:25:23;13.80;99.90
22698;DHT22;11516;51.612;7.510;2023-06-05T01:28:00;13.60;99.90
22698;DHT22;11516;51.612;7.510;2023-06-05T01:30:35;13.80;99.90
22698;DHT22;11516;51.612;7.510;2023-06-05T01:33:11;13.60;99.90
22698;DHT22;11516;51.612;7.510;2023-06-05T01:35:39;13.40;99.90
22698;DHT22;11516;51.612;7.510;2023-06-05T01:38:06;14.10;99.90
22698;DHT22;11516;51.612;7.510;2023-06-05T01:40:35;13.40;99.90
22698;DHT22;11516;51.612;7.510;2023-06-05T01:43:03;13.60;99.90
22698;DHT22;11516;51.612;7.510;2023-06-05T01:45:30;13.30;99.90
22698;DHT22;11516;51.612;7.510;2023-06-05T01:47:57;13.20;99.90
22698;DHT22;11516;51.612;7.510;2023-06-05T01:50:23;13.50;99.90
22698;DHT22;11516;51.612;7.510;2023-06-05T01:52:49;13.30;99.90
22698;DHT22;11516;51.612;7.510;2023-06-05T01:55:19;13.50;99.90
22698;DHT22;11516;51.612;7.510;2023-06-05T01:57:49;13.00;99.90
22698;DHT22;11516;51.612;7.510;2023-06-05T02:00:16;13.20;99.90
22698;DHT22;11516;51.612;7.510;2023-06-05T02:02:43;13.00;99.90
22698;DHT22;11516;51.612;7.510;2023-06-05T02:05:10;13.00;99.90
22698;DHT22;11516;51.612;7.510;2023-06-05T02:07:40;12.90;99.90
22698;DHT22;11516;51.612;7.510;2023-06-05T02:10:07;13.10;99.90
22698;DHT22;11516;51.612;7.510;2023-06-05T02:12:34;12.80;99.90
22698;DHT22;11516;51.612;7.510;2023-06-05T02:15:00;12.80;99.90
22698;DHT22;11516;51.612;7.510;2023-06-05T02:17:26;12.80;99.90
22698;DHT22;11516;51.612;7.510;2023-06-05T02:19:52;12.70;99.90
22698;DHT22;11516;51.612;7.510;2023-06-05T02:22:18;12.70;99.90
22698;DHT22;11516;51.612;7.510;2023-06-05T02:24:44;12.70;99.90
22698;DHT22;11516;51.612;7.510;2023-06-05T02:27:10;12.70;99.90
22698;DHT22;11516;51.612;7.510;2023-06-05T02:29:36;12.70;99.90
22698;DHT22;11516;51.612;7.510;2023-06-05T02:32:05;12.60;99.90
22698;DHT22;11516;51.612;7.510;2023-06-05T02:34:32;12.50;99.90
22698;DHT22;11516;51.612;7.510;2023-06-05T02:36:58;12.80;99.90
22698;DHT22;11516;51.612;7.510;2023-06-05T02:39:24;12.60;99.90
22698;DHT22;11516;51.612;7.510;2023-06-05T02:41:51;12.60;99.90
22698;DHT22;11516;51.612;7.510;2023-06-05T02:44:16;12.70;99.90
22698;DHT22;11516;51.612;7.510;2023-06-05T02:46:42;12.40;99.90
22698;DHT22;11516;51.612;7.510;2023-06-05T02:49:08;12.70;99.90
22698;DHT22;11516;51.612;7.510;2023-06-05T02:51:36;12.60;99.90
22698;DHT22;11516;51.612;7.510;2023-06-05T02:54:02;12.60;99.90
22698;DHT22;11516;51.612;7.510;2023-06-05T02:56:28;12.40;99.90
22698;DHT22;11516;51.612;7.510;2023-06-05T02:58:54;12.50;99.90
22698;DHT22;11516;51.612;7.510;2023-06-05T03:01:22;12.30;99.90
22698;DHT22;11516;51.612;7.510;2023-06-05T03:03:48;12.40;99.90
22698;DHT22;11516;51.612;7.510;2023-06-05T03:06:14;12.20;99.90
22698;DHT22;11516;51.612;7.510;2023-06-05T03:08:43;12.20;99.90
22698;DHT22;11516;51.612;7.510;2023-06-05T03:11:08;12.40;99.90
22698;DHT22;11516;51.612;7.510;2023-06-05T03:13:34;12.00;99.90
22698;DHT22;11516;51.612;7.510;2023-06-05T03:15:59;12.50;99.90
22698;DHT22;11516;51.612;7.510;2023-06-05T03:18:31;12.10;99.90
22698;DHT22;11516;51.612;7.510;2023-06-05T03:20:56;12.00;99.90
22698;DHT22;11516;51.612;7.510;2023-06-05T03:23:27;12.30;99.90
22698;DHT22;11516;51.612;7.510;2023-06-05T03:25:54;12.10;99.90
22698;DHT22;11516;51.612;7.510;2023-06-05T03:28:21;12.00;99.90
22698;DHT22;11516;51.612;7.510;2023-06-05T03:30:47;12.40;99.90
22698;DHT22;11516;51.612;7.510;2023-06-05T03:33:14;12.20;99.90
22698;DHT22;11516;51.612;7.510;2023-06-05T03:35:40;12.00;99.90
22698;DHT22;11516;51.612;7.510;2023-06-05T03:38:18;12.60;99.90
22698;DHT22;11516;51.612;7.510;2023-06-05T03:40:47;12.20;99.90
22698;DHT22;11516;51.612;7.510;2023-06-05T03:43:13;12.10;99.90
22698;DHT22;11516;51.612;7.510;2023-06-05T03:45:38;12.20;99.90
22698;DHT22;11516;51.612;7.510;2023-06-05T03:48:06;12.00;99.90
22698;DHT22;11516;51.612;7.510;2023-06-05T03:50:32;12.00;99.90
22698;DHT22;11516;51.612;7.510;2023-06-05T03:52:59;11.90;99.90
22698;DHT22;11516;51.612;7.510;2023-06-05T03:55:30;11.90;99.90
22698;DHT22;11516;51.612;7.510;2023-06-05T03:58:07;12.10;99.90
22698;DHT22;11516;51.612;7.510;2023-06-05T04:00:33;12.10;99.90
22698;DHT22;11516;51.612;7.510;2023-06-05T04:02:59;12.10;99.90
22698;DHT22;11516;51.612;7.510;2023-06-05T04:05:25;12.00;99.90
22698;DHT22;11516;51.612;7.510;2023-06-05T04:07:50;12.70;99.90
22698;DHT22;11516;51.612;7.510;2023-06-05T04:10:16;12.30;99.90
22698;DHT22;11516;51.612;7.510;2023-06-05T04:12:42;12.00;99.90
22698;DHT22;11516;51.612;7.510;2023-06-05T04:15:08;12.10;99.90
22698;DHT22;11516;51.612;7.510;2023-06-05T04:17:40;12.10;99.90
22698;DHT22;11516;51.612;7.510;2023-06-05T04:38:13;12.20;99.90
22698;DHT22;11516;51.612;7.510;2023-06-05T04:40:39;12.40;99.90
22698;DHT22;11516;51.612;7.510;2023-06-05T04:43:04;12.60;99.90
22698;DHT22;11516;51.612;7.510;2023-06-05T04:45:30;12.60;99.90
22698;DHT22;11516;51.612;7.510;2023-06-05T04:47:56;12.40;99.90
22698;DHT22;11516;51.612;7.510;2023-06-05T04:50:26;12.40;99.90
22698;DHT22;11516;51.612;7.510;2023-06-05T04:52:52;12.60;99.90
22698;DHT22;11516;51.612;7.510;2023-06-05T04:55:18;12.50;99.90
22698;DHT22;11516;51.612;7.510;2023-06-05T04:57:45;12.60;99.90
22698;DHT22;11516;51.612;7.510;2023-06-05T05:00:11;12.60;99.90
22698;DHT22;11516;51.612;7.510;2023-06-05T05:02:40;12.60;99.90
22698;DHT22;11516;51.612;7.510;2023-06-05T05:05:06;12.90;99.90
22698;DHT22;11516;51.612;7.510;2023-06-05T05:07:32;12.70;99.90
22698;DHT22;11516;51.612;7.510;2023-06-05T05:09:58;12.80;99.90
22698;DHT22;11516;51.612;7.510;2023-06-05T05:12:23;12.80;99.90
22698;DHT22;11516;51.612;7.510;2023-06-05T05:14:49;12.70;99.90
22698;DHT22;11516;51.612;7.510;2023-06-05T05:17:14;12.80;99.90
22698;DHT22;11516;51.612;7.510;2023-06-05T05:19:44;12.70;99.90
22698;DHT22;11516;51.612;7.510;2023-06-05T05:22:10;13.00;99.90
22698;DHT22;11516;51.612;7.510;2023-06-05T05:24:36;13.00;99.90
22698;DHT22;11516;51.612;7.510;2023-06-05T05:27:02;13.00;99.90
22698;DHT22;11516;51.612;7.510;2023-06-05T05:29:27;13.00;99.90
22698;DHT22;11516;51.612;7.510;2023-06-05T05:31:53;13.30;99.90
22698;DHT22;11516;51.612;7.510;2023-06-05T05:34:21;13.40;99.90
22698;DHT22;11516;51.612;7.510;2023-06-05T05:36:47;13.10;99.90
22698;DHT22;11516;51.612;7.510;2023-06-05T05:39:12;13.00;99.90
22698;DHT22;11516;51.612;7.510;2023-06-05T05:41:38;13.10;99.90
22698;DHT22;11516;51.612;7.510;2023-06-05T05:44:03;13.20;99.90
22698;DHT22;11516;51.612;7.510;2023-06-05T05:46:29;13.30;99.90
22698;DHT22;11516;51.612;7.510;2023-06-05T05:48:55;13.30;99.90
22698;DHT22;11516;51.612;7.510;2023-06-05T05:51:20;13.30;99.90
22698;DHT22;11516;51.612;7.510;2023-06-05T05:53:46;13.50;99.90
22698;DHT22;11516;51.612;7.510;2023-06-05T05:56:12;13.40;99.90
22698;DHT22;11516;51.612;7.510;2023-06-05T05:58:37;13.70;99.90
22698;DHT22;11516;51.612;7.510;2023-06-05T06:01:08;13.60;99.90
22698;DHT22;11516;51.612;7.510;2023-06-05T06:03:34;13.90;99.90
22698;DHT22;11516;51.612;7.510;2023-06-05T06:06:03;13.60;99.90
22698;DHT22;11516;51.612;7.510;2023-06-05T06:08:34;13.70;99.90
22698;DHT22;11516;51.612;7.510;2023-06-05T06:11:00;13.90;99.90
22698;DHT22;11516;51.612;7.510;2023-06-05T06:13:26;14.00;99.90
22698;DHT22;11516;51.612;7.510;2023-06-05T06:15:55;14.00;99.90
22698;DHT22;11516;51.612;7.510;2023-06-05T06:18:21;14.00;99.90
22698;DHT22;11516;51.612;7.510;2023-06-05T06:20:46;14.10;99.90
22698;DHT22;11516;51.612;7.510;2023-06-05T06:23:15;14.20;99.90
22698;DHT22;11516;51.612;7.510;2023-06-05T06:25:43;14.40;99.90
22698;DHT22;11516;51.612;7.510;2023-06-05T06:28:08;14.30;99.90
22698;DHT22;11516;51.612;7.510;2023-06-05T06:30:35;14.50;99.90
22698;DHT22;11516;51.612;7.510;2023-06-05T06:33:01;14.50;99.90
22698;DHT22;11516;51.612;7.510;2023-06-05T06:35:29;14.40;99.90
22698;DHT22;11516;51.612;7.510;2023-06-05T06:37:57;14.40;99.90
22698;DHT22;11516;51.612;7.510;2023-06-05T06:40:23;14.50;99.90
22698;DHT22;11516;51.612;7.510;2023-06-05T06:42:49;14.70;99.90
22698;DHT22;11516;51.612;7.510;2023-06-05T06:45:16;14.80;99.90
22698;DHT22;11516;51.612;7.510;2023-06-05T06:47:43;14.90;99.90
22698;DHT22;11516;51.612;7.510;2023-06-05T06:50:09;15.00;99.90
22698;DHT22;11516;51.612;7.510;2023-06-05T06:52:35;15.30;99.90
22698;DHT22;11516;51.612;7.510;2023-06-05T06:55:01;15.30;99.90
22698;DHT22;11516;51.612;7.510;2023-06-05T06:57:27;15.30;99.90
22698;DHT22;11516;51.612;7.510;2023-06-05T06:59:52;15.30;99.90
22698;DHT22;11516;51.612;7.510;2023-06-05T07:02:20;15.40;99.90
22698;DHT22;11516;51.612;7.510;2023-06-05T07:04:46;15.50;99.90
22698;DHT22;11516;51.612;7.510;2023-06-05T07:07:14;15.50;99.90
22698;DHT22;11516;51.612;7.510;2023-06-05T07:09:41;15.60;99.90
22698;DHT22;11516;51.612;7.510;2023-06-05T07:12:11;15.70;99.90
22698;DHT22;11516;51.612;7.510;2023-06-05T07:14:38;15.80;99.90
22698;DHT22;11516;51.612;7.510;2023-06-05T07:17:04;15.90;99.90
22698;DHT22;11516;51.612;7.510;2023-06-05T07:19:31;15.90;99.90
22698;DHT22;11516;51.612;7.510;2023-06-05T07:21:58;16.10;99.90
22698;DHT22;11516;51.612;7.510;2023-06-05T07:24:27;16.10;99.90
22698;DHT22;11516;51.612;7.510;2023-06-05T07:26:59;16.20;99.90
22698;DHT22;11516;51.612;7.510;2023-06-05T07:29:26;16.20;99.90
22698;DHT22;11516;51.612;7.510;2023-06-05T07:31:54;16.10;99.90
22698;DHT22;11516;51.612;7.510;2023-06-05T07:34:21;16.10;99.90
22698;DHT22;11516;51.612;7.510;2023-06-05T07:36:47;16.20;99.90
22698;DHT22;11516;51.612;7.510;2023-06-05T07:39:14;16.30;99.90
22698;DHT22;11516;51.612;7.510;2023-06-05T07:41:40;16.50;99.90
22698;DHT22;11516;51.612;7.510;2023-06-05T07:44:16;16.50;99.90
22698;DHT22;11516;51.612;7.510;2023-06-05T07:46:43;16.70;99.90
22698;DHT22;11516;51.612;7.510;2023-06-05T07:49:10;16.80;99.90
22698;DHT22;11516;51.612;7.510;2023-06-05T07:51:36;16.50;99.90
22698;DHT22;11516;51.612;7.510;2023-06-05T07:54:06;16.70;99.90
22698;DHT22;11516;51.612;7.510;2023-06-05T07:56:32;16.50;99.90
22698;DHT22;11516;51.612;7.510;2023-06-05T07:58:59;16.50;99.90
22698;DHT22;11516;51.612;7.510;2023-06-05T08:01:25;16.60;99.90
22698;DHT22;11516;51.612;7.510;2023-06-05T08:03:51;16.80;99.90
22698;DHT22;11516;51.612;7.510;2023-06-05T08:06:18;17.10;99.90
22698;DHT22;11516;51.612;7.510;2023-06-05T08:08:43;17.20;99.90
22698;DHT22;11516;51.612;7.510;2023-06-05T08:11:12;17.10;99.90
22698;DHT22;11516;51.612;7.510;2023-06-05T08:13:38;17.10;99.90
22698;DHT22;11516;51.612;7.510;2023-06-05T08:16:05;17.40;99.90
22698;DHT22;11516;51.612;7.510;2023-06-05T08:18:31;17.60;99.90
22698;DHT22;11516;51.612;7.510;2023-06-05T08:20:56;17.60;99.90
22698;DHT22;11516;51.612;7.510;2023-06-05T08:23:22;17.70;99.90
22698;DHT22;11516;51.612;7.510;2023-06-05T08:25:48;17.90;99.90
22698;DHT22;11516;51.612;7.510;2023-06-05T08:28:16;18.10;99.90
22698;DHT22;11516;51.612;7.510;2023-06-05T08:30:42;18.00;99.90
22698;DHT22;11516;51.612;7.510;2023-06-05T08:33:09;18.10;99.90
22698;DHT22;11516;51.612;7.510;2023-06-05T08:35:43;18.20;99.90
22698;DHT22;11516;51.612;7.510;2023-06-05T08:38:08;18.30;99.90
22698;DHT22;11516;51.612;7.510;2023-06-05T08:40:34;18.30;99.90
22698;DHT22;11516;51.612;7.510;2023-06-05T08:43:02;18.30;99.90
22698;DHT22;11516;51.612;7.510;2023-06-05T08:45:28;18.50;99.90
22698;DHT22;11516;51.612;7.510;2023-06-05T08:47:54;18.50;99.90
22698;DHT22;11516;51.612;7.510;2023-06-05T08:50:23;18.50;99.90
22698;DHT22;11516;51.612;7.510;2023-06-05T08:52:50;18.50;99.90
22698;DHT22;11516;51.612;7.510;2023-06-05T08:55:16;18.50;99.90
22698;DHT22;11516;51.612;7.510;2023-06-05T08:57:43;18.40;99.90
22698;DHT22;11516;51.612;7.510;2023-06-05T09:00:11;18.70;99.90
22698;DHT22;11516;51.612;7.510;2023-06-05T09:02:40;18.90;99.90
22698;DHT22;11516;51.612;7.510;2023-06-05T09:05:09;19.00;99.90
22698;DHT22;11516;51.612;7.510;2023-06-05T09:07:35;19.10;99.90
22698;DHT22;11516;51.612;7.510;2023-06-05T09:10:04;19.30;99.90
22698;DHT22;11516;51.612;7.510;2023-06-05T09:12:29;19.20;99.90
22698;DHT22;11516;51.612;7.510;2023-06-05T09:14:55;19.10;99.90
22698;DHT22;11516;51.612;7.510;2023-06-05T09:17:22;19.20;99.90
22698;DHT22;11516;51.612;7.510;2023-06-05T09:19:48;19.40;99.90
22698;DHT22;11516;51.612;7.510;2023-06-05T09:22:15;19.30;99.90
22698;DHT22;11516;51.612;7.510;2023-06-05T09:24:42;19.30;99.90
22698;DHT22;11516;51.612;7.510;2023-06-05T09:27:09;19.50;99.90
22698;DHT22;11516;51.612;7.510;2023-06-05T09:29:37;19.70;99.90
22698;DHT22;11516;51.612;7.510;2023-06-05T09:32:17;19.70;99.90
22698;DHT22;11516;51.612;7.510;2023-06-05T09:34:43;19.90;99.90
22698;DHT22;11516;51.612;7.510;2023-06-05T09:37:14;20.00;99.90
22698;DHT22;11516;51.612;7.510;2023-06-05T09:39:41;20.00;99.90
22698;DHT22;11516;51.612;7.510;2023-06-05T09:42:08;20.40;99.90
22698;DHT22;11516;51.612;7.510;2023-06-05T09:44:35;20.10;99.90
22698;DHT22;11516;51.612;7.510;2023-06-05T09:47:06;20.10;99.90
22698;DHT22;11516;51.612;7.510;2023-06-05T09:49:54;20.30;99.90
22698;DHT22;11516;51.612;7.510;2023-06-05T09:52:21;20.30;99.90
22698;DHT22;11516;51.612;7.510;2023-06-05T09:54:47;20.40;99.90
22698;DHT22;11516;51.612;7.510;2023-06-05T09:57:14;20.60;99.90
22698;DHT22;11516;51.612;7.510;2023-06-05T09:59:51;20.50;99.90
22698;DHT22;11516;51.612;7.510;2023-06-05T10:02:32;20.60;99.90
22698;DHT22;11516;51.612;7.510;2023-06-05T10:05:01;20.90;99.90
22698;DHT22;11516;51.612;7.510;2023-06-05T10:07:30;20.90;99.90
22698;DHT22;11516;51.612;7.510;2023-06-05T10:10:09;20.90;99.90
22698;DHT22;11516;51.612;7.510;2023-06-05T10:12:48;21.20;99.90
22698;DHT22;11516;51.612;7.510;2023-06-05T10:15:14;21.10;99.90
22698;DHT22;11516;51.612;7.510;2023-06-05T10:17:40;21.40;99.90
22698;DHT22;11516;51.612;7.510;2023-06-05T10:20:08;21.30;99.90
22698;DHT22;11516;51.612;7.510;2023-06-05T10:22:36;21.20;99.90
22698;DHT22;11516;51.612;7.510;2023-06-05T10:25:07;21.40;99.90
22698;DHT22;11516;51.612;7.510;2023-06-05T10:28:16;21.50;99.90
22698;DHT22;11516;51.612;7.510;2023-06-05T10:33:37;21.40;99.90
22698;DHT22;11516;51.612;7.510;2023-06-05T10:38:42;21.50;99.90
22698;DHT22;11516;51.612;7.510;2023-06-05T10:41:09;21.40;99.90
22698;DHT22;11516;51.612;7.510;2023-06-05T10:43:53;21.70;99.90
22698;DHT22;11516;51.612;7.510;2023-06-05T10:46:28;22.00;99.90
22698;DHT22;11516;51.612;7.510;2023-06-05T10:51:45;22.40;99.90
22698;DHT22;11516;51.612;7.510;2023-06-05T11:07:29;25.50;92.50
22698;DHT22;11516;51.612;7.510;2023-06-05T11:12:51;26.50;88.40
22698;DHT22;11516;51.612;7.510;2023-06-05T11:15:14;26.20;85.30
22698;DHT22;11516;51.612;7.510;2023-06-05T11:17:42;26.70;85.30
22698;DHT22;11516;51.612;7.510;2023-06-05T11:27:56;27.00;80.80
22698;DHT22;11516;51.612;7.510;2023-06-05T11:30:27;27.10;78.30
22698;DHT22;11516;51.612;7.510;2023-06-05T11:35:36;26.70;77.20
22698;DHT22;11516;51.612;7.510;2023-06-05T11:38:11;26.90;77.00
22698;DHT22;11516;51.612;7.510;2023-06-05T11:40:40;27.10;76.20
22698;DHT22;11516;51.612;7.510;2023-06-05T11:43:07;27.20;75.50
22698;DHT22;11516;51.612;7.510;2023-06-05T11:45:34;27.60;75.20
22698;DHT22;11516;51.612;7.510;2023-06-05T11:48:11;27.40;75.60
22698;DHT22;11516;51.612;7.510;2023-06-05T11:50:53;28.10;73.00
22698;DHT22;11516;51.612;7.510;2023-06-05T11:53:20;28.40;71.50
22698;DHT22;11516;51.612;7.510;2023-06-05T11:55:51;28.50;72.00
22698;DHT22;11516;51.612;7.510;2023-06-05T12:00:47;28.70;67.90
22698;DHT22;11516;51.612;7.510;2023-06-05T12:03:19;28.30;69.80
22698;DHT22;11516;51.612;7.510;2023-06-05T12:05:47;28.20;67.70
22698;DHT22;11516;51.612;7.510;2023-06-05T12:08:25;28.40;67.40
22698;DHT22;11516;51.612;7.510;2023-06-05T12:10:52;28.40;67.10
22698;DHT22;11516;51.612;7.510;2023-06-05T12:13:20;28.00;67.40
22698;DHT22;11516;51.612;7.510;2023-06-05T12:15:59;28.30;67.40
22698;DHT22;11516;51.612;7.510;2023-06-05T12:18:35;28.90;66.20
22698;DHT22;11516;51.612;7.510;2023-06-05T12:21:01;29.10;67.50
22698;DHT22;11516;51.612;7.510;2023-06-05T12:23:30;28.50;64.80
22698;DHT22;11516;51.612;7.510;2023-06-05T12:26:01;28.60;64.90
22698;DHT22;11516;51.612;7.510;2023-06-05T12:28:29;28.70;64.50
22698;DHT22;11516;51.612;7.510;2023-06-05T12:30:55;29.20;63.70
22698;DHT22;11516;51.612;7.510;2023-06-05T12:33:22;29.50;64.40
22698;DHT22;11516;51.612;7.510;2023-06-05T12:38:30;28.80;64.70
22698;DHT22;11516;51.612;7.510;2023-06-05T12:41:01;28.30;65.20
22698;DHT22;11516;51.612;7.510;2023-06-05T12:43:27;28.40;63.80
22698;DHT22;11516;51.612;7.510;2023-06-05T12:45:54;28.10;64.50
22698;DHT22;11516;51.612;7.510;2023-06-05T12:48:20;27.80;63.50
22698;DHT22;11516;51.612;7.510;2023-06-05T12:50:48;28.10;63.50
22698;DHT22;11516;51.612;7.510;2023-06-05T12:53:14;28.30;63.70
22698;DHT22;11516;51.612;7.510;2023-06-05T12:56:03;28.00;64.50
22698;DHT22;11516;51.612;7.510;2023-06-05T12:58:33;27.80;64.60
22698;DHT22;11516;51.612;7.510;2023-06-05T13:00:58;28.40;63.20
22698;DHT22;11516;51.612;7.510;2023-06-05T13:03:30;28.40;62.90
22698;DHT22;11516;51.612;7.510;2023-06-05T13:05:56;28.30;62.30
22698;DHT22;11516;51.612;7.510;2023-06-05T13:08:22;28.50;62.40
22698;DHT22;11516;51.612;7.510;2023-06-05T13:10:50;28.30;61.50
22698;DHT22;11516;51.612;7.510;2023-06-05T13:13:17;28.20;61.20
22698;DHT22;11516;51.612;7.510;2023-06-05T13:15:52;27.80;63.30
22698;DHT22;11516;51.612;7.510;2023-06-05T13:26:04;27.90;62.90
22698;DHT22;11516;51.612;7.510;2023-06-05T13:28:30;28.10;62.70
22698;DHT22;11516;51.612;7.510;2023-06-05T16:00:54;26.00;61.10
22698;DHT22;11516;51.612;7.510;2023-06-05T16:03:20;26.00;61.50
22698;DHT22;11516;51.612;7.510;2023-06-05T16:52:16;25.40;63.30
22698;DHT22;11516;51.612;7.510;2023-06-05T16:54:42;25.40;64.10
22698;DHT22;11516;51.612;7.510;2023-06-05T16:57:08;25.30;65.20
22698;DHT22;11516;51.612;7.510;2023-06-05T16:59:33;25.20;65.00
